sensor_id;sensor_type;location;lat;lon;timestamp;P1;durP1;ratioP1;P2;durP2;ratioP2
39370;SDS011;25099;51.946;4.838;2023-06-14T00:01:27;7.25;;;3.63;;
39370;SDS011;25099;51.946;4.838;2023-06-14T00:03:53;4.70;;;2.80;;
39370;SDS011;25099;51.946;4.838;2023-06-14T00:06:20;4.55;;;3.20;;
39370;SDS011;25099;51.946;4.838;2023-06-14T00:08:46;4.03;;;3.30;;
39370;SDS011;25099;51.946;4.838;2023-06-14T00:11:11;4.60;;;3.00;;
39370;SDS011;25099;51.946;4.838;2023-06-14T00:13:37;4.22;;;3.42;;
39370;SDS011;25099;51.946;4.838;2023-06-14T00:16:02;5.00;;;3.15;;
39370;SDS011;25099;51.946;4.838;2023-06-14T00:18:28;5.03;;;3.50;;
39370;SDS011;25099;51.946;4.838;2023-06-14T00:20:56;9.48;;;3.47;;
39370;SDS011;25099;51.946;4.838;2023-06-14T00:23:22;4.10;;;3.70;;
39370;SDS011;25099;51.946;4.838;2023-06-14T00:25:48;11.02;;;3.50;;
39370;SDS011;25099;51.946;4.838;2023-06-14T00:28:13;6.18;;;3.47;;
39370;SDS011;25099;51.946;4.838;2023-06-14T00:30:39;5.25;;;3.40;;
39370;SDS011;25099;51.946;4.838;2023-06-14T00:33:05;4.07;;;3.72;;
39370;SDS011;25099;51.946;4.838;2023-06-14T00:35:31;4.22;;;3.72;;
39370;SDS011;25099;51.946;4.838;2023-06-14T00:37:56;7.45;;;3.50;;
39370;SDS011;25099;51.946;4.838;2023-06-14T00:40:22;6.53;;;3.67;;
39370;SDS011;25099;51.946;4.838;2023-06-14T00:42:48;5.60;;;3.78;;
39370;SDS011;25099;51.946;4.838;2023-06-14T00:45:13;5.25;;;3.78;;
39370;SDS011;25099;51.946;4.838;2023-06-14T00:47:40;6.07;;;3.88;;
39370;SDS011;25099;51.946;4.838;2023-06-14T00:50:07;9.20;;;3.88;;
39370;SDS011;25099;51.946;4.838;2023-06-14T00:52:33;7.28;;;3.92;;
39370;SDS011;25099;51.946;4.838;2023-06-14T00:54:59;9.50;;;3.75;;
39370;SDS011;25099;51.946;4.838;2023-06-14T00:57:25;7.43;;;3.60;;
39370;SDS011;25099;51.946;4.838;2023-06-14T00:59:52;6.10;;;3.65;;
39370;SDS011;25099;51.946;4.838;2023-06-14T01:02:17;15.65;;;3.63;;
39370;SDS011;25099;51.946;4.838;2023-06-14T01:04:44;8.18;;;3.30;;
39370;SDS011;25099;51.946;4.838;2023-06-14T01:15:21;7.45;;;3.80;;
39370;SDS011;25099;51.946;4.838;2023-06-14T01:17:49;4.95;;;3.13;;
39370;SDS011;25099;51.946;4.838;2023-06-14T01:20:16;7.88;;;3.10;;
39370;SDS011;25099;51.946;4.838;2023-06-14T01:22:54;8.25;;;3.85;;
39370;SDS011;25099;51.946;4.838;2023-06-14T01:25:19;6.32;;;3.53;;
39370;SDS011;25099;51.946;4.838;2023-06-14T01:27:52;4.35;;;3.25;;
39370;SDS011;25099;51.946;4.838;2023-06-14T01:30:26;6.63;;;3.58;;
39370;SDS011;25099;51.946;4.838;2023-06-14T01:32:54;4.15;;;3.70;;
39370;SDS011;25099;51.946;4.838;2023-06-14T01:35:20;10.27;;;3.53;;
39370;SDS011;25099;51.946;4.838;2023-06-14T01:37:47;6.15;;;3.63;;
39370;SDS011;25099;51.946;4.838;2023-06-14T01:40:17;8.95;;;3.05;;
39370;SDS011;25099;51.946;4.838;2023-06-14T01:45:11;7.55;;;3.38;;
39370;SDS011;25099;51.946;4.838;2023-06-14T01:47:36;7.03;;;3.83;;
39370;SDS011;25099;51.946;4.838;2023-06-14T01:50:04;7.20;;;3.25;;
39370;SDS011;25099;51.946;4.838;2023-06-14T01:52:30;8.23;;;3.85;;
39370;SDS011;25099;51.946;4.838;2023-06-14T01:54:56;8.27;;;3.83;;
39370;SDS011;25099;51.946;4.838;2023-06-14T01:57:24;4.93;;;3.53;;
39370;SDS011;25099;51.946;4.838;2023-06-14T01:59:51;6.47;;;4.03;;
39370;SDS011;25099;51.946;4.838;2023-06-14T02:02:17;13.63;;;4.20;;
39370;SDS011;25099;51.946;4.838;2023-06-14T02:04:43;11.07;;;4.22;;
39370;SDS011;25099;51.946;4.838;2023-06-14T02:07:08;9.52;;;3.72;;
39370;SDS011;25099;51.946;4.838;2023-06-14T02:09:34;4.47;;;3.78;;
39370;SDS011;25099;51.946;4.838;2023-06-14T02:12:00;6.53;;;3.95;;
39370;SDS011;25099;51.946;4.838;2023-06-14T02:14:26;8.90;;;3.40;;
39370;SDS011;25099;51.946;4.838;2023-06-14T02:16:52;8.27;;;4.13;;
39370;SDS011;25099;51.946;4.838;2023-06-14T02:19:18;14.23;;;4.00;;
39370;SDS011;25099;51.946;4.838;2023-06-14T02:21:45;4.07;;;3.33;;
39370;SDS011;25099;51.946;4.838;2023-06-14T02:24:12;4.07;;;3.75;;
39370;SDS011;25099;51.946;4.838;2023-06-14T02:26:38;8.23;;;4.07;;
39370;SDS011;25099;51.946;4.838;2023-06-14T02:29:04;6.32;;;3.50;;
39370;SDS011;25099;51.946;4.838;2023-06-14T02:31:40;8.02;;;4.07;;
39370;SDS011;25099;51.946;4.838;2023-06-14T02:34:05;5.05;;;3.80;;
39370;SDS011;25099;51.946;4.838;2023-06-14T02:36:33;11.00;;;3.90;;
39370;SDS011;25099;51.946;4.838;2023-06-14T02:39:06;13.90;;;3.88;;
39370;SDS011;25099;51.946;4.838;2023-06-14T02:41:34;8.45;;;3.92;;
39370;SDS011;25099;51.946;4.838;2023-06-14T02:44:00;10.57;;;3.40;;
39370;SDS011;25099;51.946;4.838;2023-06-14T02:46:25;6.30;;;3.70;;
39370;SDS011;25099;51.946;4.838;2023-06-14T02:48:51;8.27;;;3.17;;
39370;SDS011;25099;51.946;4.838;2023-06-14T02:51:16;5.53;;;3.53;;
39370;SDS011;25099;51.946;4.838;2023-06-14T02:53:42;11.88;;;4.63;;
39370;SDS011;25099;51.946;4.838;2023-06-14T02:56:08;6.28;;;3.65;;
39370;SDS011;25099;51.946;4.838;2023-06-14T02:58:35;9.10;;;3.50;;
39370;SDS011;25099;51.946;4.838;2023-06-14T03:01:01;5.63;;;3.63;;
39370;SDS011;25099;51.946;4.838;2023-06-14T03:03:28;6.40;;;3.30;;
39370;SDS011;25099;51.946;4.838;2023-06-14T03:05:54;16.08;;;4.10;;
39370;SDS011;25099;51.946;4.838;2023-06-14T03:08:20;15.45;;;4.03;;
39370;SDS011;25099;51.946;4.838;2023-06-14T03:10:46;8.88;;;3.78;;
39370;SDS011;25099;51.946;4.838;2023-06-14T03:13:12;6.80;;;3.20;;
39370;SDS011;25099;51.946;4.838;2023-06-14T03:15:38;8.43;;;3.17;;
39370;SDS011;25099;51.946;4.838;2023-06-14T03:18:07;8.25;;;3.47;;
39370;SDS011;25099;51.946;4.838;2023-06-14T03:20:33;9.38;;;3.95;;
39370;SDS011;25099;51.946;4.838;2023-06-14T03:23:02;8.88;;;3.60;;
39370;SDS011;25099;51.946;4.838;2023-06-14T03:25:28;8.00;;;3.75;;
39370;SDS011;25099;51.946;4.838;2023-06-14T03:27:58;10.63;;;3.83;;
39370;SDS011;25099;51.946;4.838;2023-06-14T03:30:23;6.72;;;4.00;;
39370;SDS011;25099;51.946;4.838;2023-06-14T03:32:49;7.05;;;4.35;;
39370;SDS011;25099;51.946;4.838;2023-06-14T03:35:18;9.27;;;4.00;;
39370;SDS011;25099;51.946;4.838;2023-06-14T03:37:44;7.70;;;4.32;;
39370;SDS011;25099;51.946;4.838;2023-06-14T03:40:11;6.38;;;4.38;;
39370;SDS011;25099;51.946;4.838;2023-06-14T03:42:37;12.88;;;3.60;;
39370;SDS011;25099;51.946;4.838;2023-06-14T03:45:03;8.27;;;4.13;;
39370;SDS011;25099;51.946;4.838;2023-06-14T03:47:29;9.02;;;4.18;;
39370;SDS011;25099;51.946;4.838;2023-06-14T03:49:55;7.00;;;3.90;;
39370;SDS011;25099;51.946;4.838;2023-06-14T03:52:21;10.23;;;3.85;;
39370;SDS011;25099;51.946;4.838;2023-06-14T03:54:48;10.25;;;3.60;;
39370;SDS011;25099;51.946;4.838;2023-06-14T03:57:14;8.52;;;3.53;;
39370;SDS011;25099;51.946;4.838;2023-06-14T03:59:40;8.77;;;3.75;;
39370;SDS011;25099;51.946;4.838;2023-06-14T04:02:06;5.90;;;3.53;;
39370;SDS011;25099;51.946;4.838;2023-06-14T04:04:32;9.25;;;3.55;;
39370;SDS011;25099;51.946;4.838;2023-06-14T04:06:58;7.05;;;3.97;;
39370;SDS011;25099;51.946;4.838;2023-06-14T04:09:25;8.93;;;4.20;;
39370;SDS011;25099;51.946;4.838;2023-06-14T04:11:54;14.82;;;3.90;;
39370;SDS011;25099;51.946;4.838;2023-06-14T04:14:21;9.40;;;3.83;;
39370;SDS011;25099;51.946;4.838;2023-06-14T04:16:47;7.00;;;3.90;;
39370;SDS011;25099;51.946;4.838;2023-06-14T04:19:13;9.80;;;4.10;;
39370;SDS011;25099;51.946;4.838;2023-06-14T04:21:39;6.05;;;3.65;;
39370;SDS011;25099;51.946;4.838;2023-06-14T04:24:05;5.80;;;3.42;;
39370;SDS011;25099;51.946;4.838;2023-06-14T04:26:31;6.93;;;4.07;;
39370;SDS011;25099;51.946;4.838;2023-06-14T04:28:58;7.65;;;3.90;;
39370;SDS011;25099;51.946;4.838;2023-06-14T04:31:26;6.78;;;3.83;;
39370;SDS011;25099;51.946;4.838;2023-06-14T04:33:54;8.50;;;3.25;;
39370;SDS011;25099;51.946;4.838;2023-06-14T04:36:20;4.70;;;3.50;;
39370;SDS011;25099;51.946;4.838;2023-06-14T04:38:46;6.15;;;4.15;;
39370;SDS011;25099;51.946;4.838;2023-06-14T04:41:11;11.23;;;4.32;;
39370;SDS011;25099;51.946;4.838;2023-06-14T04:43:37;5.65;;;3.67;;
39370;SDS011;25099;51.946;4.838;2023-06-14T04:46:04;6.20;;;3.90;;
39370;SDS011;25099;51.946;4.838;2023-06-14T04:48:36;3.75;;;3.20;;
39370;SDS011;25099;51.946;4.838;2023-06-14T04:51:04;11.75;;;4.07;;
39370;SDS011;25099;51.946;4.838;2023-06-14T04:53:30;10.48;;;3.55;;
39370;SDS011;25099;51.946;4.838;2023-06-14T04:55:56;6.18;;;3.35;;
39370;SDS011;25099;51.946;4.838;2023-06-14T04:58:21;9.45;;;4.10;;
39370;SDS011;25099;51.946;4.838;2023-06-14T05:00:47;5.32;;;3.38;;
39370;SDS011;25099;51.946;4.838;2023-06-14T05:03:12;11.20;;;3.67;;
39370;SDS011;25099;51.946;4.838;2023-06-14T05:05:39;6.25;;;3.90;;
39370;SDS011;25099;51.946;4.838;2023-06-14T05:08:05;16.65;;;3.80;;
39370;SDS011;25099;51.946;4.838;2023-06-14T05:10:31;13.10;;;3.78;;
39370;SDS011;25099;51.946;4.838;2023-06-14T05:12:59;24.95;;;3.85;;
39370;SDS011;25099;51.946;4.838;2023-06-14T05:15:25;16.27;;;3.55;;
39370;SDS011;25099;51.946;4.838;2023-06-14T05:18:00;9.40;;;4.03;;
39370;SDS011;25099;51.946;4.838;2023-06-14T05:20:26;21.70;;;4.18;;
39370;SDS011;25099;51.946;4.838;2023-06-14T05:23:07;8.82;;;2.95;;
39370;SDS011;25099;51.946;4.838;2023-06-14T05:25:48;6.15;;;4.35;;
39370;SDS011;25099;51.946;4.838;2023-06-14T05:28:14;8.77;;;3.45;;
39370;SDS011;25099;51.946;4.838;2023-06-14T05:30:51;11.60;;;4.18;;
39370;SDS011;25099;51.946;4.838;2023-06-14T05:33:16;9.63;;;4.15;;
39370;SDS011;25099;51.946;4.838;2023-06-14T05:35:42;7.47;;;3.63;;
39370;SDS011;25099;51.946;4.838;2023-06-14T05:38:08;6.97;;;3.35;;
39370;SDS011;25099;51.946;4.838;2023-06-14T05:40:33;6.93;;;3.63;;
39370;SDS011;25099;51.946;4.838;2023-06-14T05:42:59;6.03;;;4.07;;
39370;SDS011;25099;51.946;4.838;2023-06-14T05:45:25;8.27;;;3.75;;
39370;SDS011;25099;51.946;4.838;2023-06-14T05:47:50;12.90;;;4.07;;
39370;SDS011;25099;51.946;4.838;2023-06-14T05:50:17;5.90;;;3.17;;
39370;SDS011;25099;51.946;4.838;2023-06-14T05:52:42;12.02;;;3.90;;
39370;SDS011;25099;51.946;4.838;2023-06-14T05:55:08;5.35;;;3.78;;
39370;SDS011;25099;51.946;4.838;2023-06-14T05:57:36;6.90;;;3.40;;
39370;SDS011;25099;51.946;4.838;2023-06-14T06:00:02;10.48;;;3.67;;
39370;SDS011;25099;51.946;4.838;2023-06-14T06:02:40;11.68;;;3.53;;
39370;SDS011;25099;51.946;4.838;2023-06-14T06:05:07;12.68;;;3.67;;
39370;SDS011;25099;51.946;4.838;2023-06-14T06:07:33;6.30;;;3.63;;
39370;SDS011;25099;51.946;4.838;2023-06-14T06:09:59;12.65;;;3.45;;
39370;SDS011;25099;51.946;4.838;2023-06-14T06:12:25;10.18;;;3.20;;
39370;SDS011;25099;51.946;4.838;2023-06-14T06:14:50;7.20;;;3.78;;
39370;SDS011;25099;51.946;4.838;2023-06-14T06:17:16;17.98;;;3.50;;
39370;SDS011;25099;51.946;4.838;2023-06-14T06:19:41;7.82;;;3.65;;
39370;SDS011;25099;51.946;4.838;2023-06-14T06:22:07;9.68;;;4.10;;
39370;SDS011;25099;51.946;4.838;2023-06-14T06:24:33;5.88;;;2.88;;
39370;SDS011;25099;51.946;4.838;2023-06-14T06:26:58;6.75;;;3.45;;
39370;SDS011;25099;51.946;4.838;2023-06-14T06:29:25;7.38;;;3.40;;
39370;SDS011;25099;51.946;4.838;2023-06-14T06:31:51;7.68;;;3.53;;
39370;SDS011;25099;51.946;4.838;2023-06-14T06:34:16;7.10;;;3.22;;
39370;SDS011;25099;51.946;4.838;2023-06-14T06:36:42;6.30;;;3.15;;
39370;SDS011;25099;51.946;4.838;2023-06-14T06:39:07;10.05;;;3.13;;
39370;SDS011;25099;51.946;4.838;2023-06-14T06:41:35;6.03;;;3.38;;
39370;SDS011;25099;51.946;4.838;2023-06-14T06:44:04;11.13;;;3.63;;
39370;SDS011;25099;51.946;4.838;2023-06-14T06:46:31;11.20;;;3.80;;
39370;SDS011;25099;51.946;4.838;2023-06-14T06:48:57;9.73;;;3.70;;
39370;SDS011;25099;51.946;4.838;2023-06-14T06:51:23;16.75;;;3.70;;
39370;SDS011;25099;51.946;4.838;2023-06-14T06:53:52;8.38;;;3.40;;
39370;SDS011;25099;51.946;4.838;2023-06-14T06:56:18;7.93;;;3.65;;
39370;SDS011;25099;51.946;4.838;2023-06-14T06:58:44;5.90;;;3.40;;
39370;SDS011;25099;51.946;4.838;2023-06-14T07:01:10;9.27;;;3.35;;
39370;SDS011;25099;51.946;4.838;2023-06-14T07:03:36;8.20;;;3.63;;
39370;SDS011;25099;51.946;4.838;2023-06-14T07:06:02;14.30;;;4.03;;
39370;SDS011;25099;51.946;4.838;2023-06-14T07:08:28;11.25;;;3.55;;
39370;SDS011;25099;51.946;4.838;2023-06-14T07:10:53;10.77;;;3.92;;
39370;SDS011;25099;51.946;4.838;2023-06-14T07:13:19;3.65;;;3.22;;
39370;SDS011;25099;51.946;4.838;2023-06-14T07:15:44;9.80;;;3.55;;
39370;SDS011;25099;51.946;4.838;2023-06-14T07:18:10;4.82;;;3.42;;
39370;SDS011;25099;51.946;4.838;2023-06-14T07:20:35;8.35;;;3.40;;
39370;SDS011;25099;51.946;4.838;2023-06-14T07:23:03;7.07;;;4.05;;
39370;SDS011;25099;51.946;4.838;2023-06-14T07:25:29;7.57;;;3.60;;
39370;SDS011;25099;51.946;4.838;2023-06-14T07:27:54;6.28;;;4.03;;
39370;SDS011;25099;51.946;4.838;2023-06-14T07:30:20;6.22;;;3.90;;
39370;SDS011;25099;51.946;4.838;2023-06-14T07:32:46;4.25;;;3.78;;
39370;SDS011;25099;51.946;4.838;2023-06-14T07:35:11;5.13;;;3.50;;
39370;SDS011;25099;51.946;4.838;2023-06-14T07:37:37;7.18;;;3.60;;
39370;SDS011;25099;51.946;4.838;2023-06-14T07:40:03;16.55;;;3.55;;
39370;SDS011;25099;51.946;4.838;2023-06-14T07:42:32;9.55;;;3.60;;
39370;SDS011;25099;51.946;4.838;2023-06-14T07:44:58;9.43;;;3.40;;
39370;SDS011;25099;51.946;4.838;2023-06-14T07:47:24;14.27;;;3.13;;
39370;SDS011;25099;51.946;4.838;2023-06-14T07:49:50;4.75;;;3.05;;
39370;SDS011;25099;51.946;4.838;2023-06-14T07:52:16;3.53;;;3.22;;
39370;SDS011;25099;51.946;4.838;2023-06-14T07:54:42;11.10;;;3.70;;
39370;SDS011;25099;51.946;4.838;2023-06-14T07:57:08;5.95;;;3.47;;
39370;SDS011;25099;51.946;4.838;2023-06-14T07:59:33;14.50;;;2.67;;
39370;SDS011;25099;51.946;4.838;2023-06-14T08:02:00;7.47;;;3.05;;
39370;SDS011;25099;51.946;4.838;2023-06-14T08:04:25;11.05;;;3.03;;
39370;SDS011;25099;51.946;4.838;2023-06-14T08:06:51;4.75;;;2.80;;
39370;SDS011;25099;51.946;4.838;2023-06-14T08:09:17;5.00;;;3.08;;
39370;SDS011;25099;51.946;4.838;2023-06-14T08:11:42;6.82;;;3.13;;
39370;SDS011;25099;51.946;4.838;2023-06-14T08:14:08;7.05;;;3.25;;
39370;SDS011;25099;51.946;4.838;2023-06-14T08:16:33;12.35;;;3.10;;
39370;SDS011;25099;51.946;4.838;2023-06-14T08:18:59;7.88;;;3.05;;
39370;SDS011;25099;51.946;4.838;2023-06-14T08:21:25;10.38;;;3.50;;
39370;SDS011;25099;51.946;4.838;2023-06-14T08:23:53;10.70;;;3.50;;
39370;SDS011;25099;51.946;4.838;2023-06-14T08:26:20;9.50;;;3.20;;
39370;SDS011;25099;51.946;4.838;2023-06-14T08:28:46;3.47;;;2.80;;
39370;SDS011;25099;51.946;4.838;2023-06-14T08:31:11;10.45;;;3.08;;
39370;SDS011;25099;51.946;4.838;2023-06-14T08:33:37;7.55;;;2.85;;
39370;SDS011;25099;51.946;4.838;2023-06-14T08:36:04;4.63;;;2.70;;
39370;SDS011;25099;51.946;4.838;2023-06-14T08:38:30;15.40;;;3.38;;
39370;SDS011;25099;51.946;4.838;2023-06-14T08:40:57;8.88;;;2.70;;
39370;SDS011;25099;51.946;4.838;2023-06-14T08:43:23;8.10;;;2.97;;
39370;SDS011;25099;51.946;4.838;2023-06-14T08:45:49;15.55;;;3.88;;
39370;SDS011;25099;51.946;4.838;2023-06-14T08:48:22;5.78;;;2.78;;
39370;SDS011;25099;51.946;4.838;2023-06-14T08:50:51;6.15;;;3.30;;
39370;SDS011;25099;51.946;4.838;2023-06-14T08:53:26;5.78;;;3.42;;
39370;SDS011;25099;51.946;4.838;2023-06-14T08:55:57;9.20;;;2.75;;
39370;SDS011;25099;51.946;4.838;2023-06-14T08:58:26;3.77;;;3.00;;
39370;SDS011;25099;51.946;4.838;2023-06-14T09:00:56;6.10;;;2.80;;
39370;SDS011;25099;51.946;4.838;2023-06-14T09:03:22;6.20;;;2.70;;
39370;SDS011;25099;51.946;4.838;2023-06-14T09:05:55;10.18;;;2.95;;
39370;SDS011;25099;51.946;4.838;2023-06-14T09:08:21;9.82;;;2.60;;
39370;SDS011;25099;51.946;4.838;2023-06-14T09:10:48;6.85;;;2.85;;
39370;SDS011;25099;51.946;4.838;2023-06-14T09:13:13;6.03;;;2.78;;
39370;SDS011;25099;51.946;4.838;2023-06-14T09:15:39;8.25;;;2.67;;
39370;SDS011;25099;51.946;4.838;2023-06-14T09:18:05;7.43;;;2.55;;
39370;SDS011;25099;51.946;4.838;2023-06-14T09:20:31;4.82;;;3.05;;
39370;SDS011;25099;51.946;4.838;2023-06-14T09:22:57;5.50;;;2.60;;
39370;SDS011;25099;51.946;4.838;2023-06-14T09:25:23;4.82;;;2.67;;
39370;SDS011;25099;51.946;4.838;2023-06-14T09:27:50;4.20;;;2.72;;
39370;SDS011;25099;51.946;4.838;2023-06-14T09:30:16;7.40;;;2.42;;
39370;SDS011;25099;51.946;4.838;2023-06-14T09:32:45;3.45;;;2.40;;
39370;SDS011;25099;51.946;4.838;2023-06-14T09:35:11;6.40;;;2.05;;
39370;SDS011;25099;51.946;4.838;2023-06-14T09:37:36;9.82;;;2.58;;
39370;SDS011;25099;51.946;4.838;2023-06-14T09:40:03;3.63;;;2.00;;
39370;SDS011;25099;51.946;4.838;2023-06-14T09:42:29;2.78;;;2.05;;
39370;SDS011;25099;51.946;4.838;2023-06-14T09:44:57;2.30;;;1.90;;
39370;SDS011;25099;51.946;4.838;2023-06-14T09:47:23;10.95;;;1.98;;
39370;SDS011;25099;51.946;4.838;2023-06-14T09:49:50;4.15;;;2.25;;
39370;SDS011;25099;51.946;4.838;2023-06-14T09:52:18;2.65;;;1.88;;
39370;SDS011;25099;51.946;4.838;2023-06-14T09:54:44;2.55;;;2.10;;
39370;SDS011;25099;51.946;4.838;2023-06-14T09:59:44;2.80;;;1.95;;
39370;SDS011;25099;51.946;4.838;2023-06-14T10:02:21;6.10;;;2.30;;
39370;SDS011;25099;51.946;4.838;2023-06-14T10:04:53;9.32;;;2.30;;
39370;SDS011;25099;51.946;4.838;2023-06-14T10:07:23;6.43;;;1.90;;
39370;SDS011;25099;51.946;4.838;2023-06-14T10:09:51;2.15;;;1.77;;
39370;SDS011;25099;51.946;4.838;2023-06-14T10:12:18;4.70;;;1.70;;
39370;SDS011;25099;51.946;4.838;2023-06-14T10:14:50;7.13;;;1.80;;
39370;SDS011;25099;51.946;4.838;2023-06-14T10:17:22;4.50;;;1.83;;
39370;SDS011;25099;51.946;4.838;2023-06-14T10:23:00;4.28;;;1.73;;
39370;SDS011;25099;51.946;4.838;2023-06-14T10:25:32;6.05;;;1.55;;
39370;SDS011;25099;51.946;4.838;2023-06-14T10:31:02;3.17;;;1.88;;
39370;SDS011;25099;51.946;4.838;2023-06-14T10:33:32;3.08;;;1.48;;
39370;SDS011;25099;51.946;4.838;2023-06-14T10:41:27;2.63;;;1.90;;
39370;SDS011;25099;51.946;4.838;2023-06-14T10:44:54;14.27;;;1.80;;
39370;SDS011;25099;51.946;4.838;2023-06-14T10:46:49;3.08;;;1.48;;
39370;SDS011;25099;51.946;4.838;2023-06-14T10:49:18;2.95;;;1.83;;
39370;SDS011;25099;51.946;4.838;2023-06-14T10:51:44;4.25;;;1.55;;
39370;SDS011;25099;51.946;4.838;2023-06-14T10:54:14;13.27;;;2.08;;
39370;SDS011;25099;51.946;4.838;2023-06-14T10:56:51;5.47;;;1.55;;
39370;SDS011;25099;51.946;4.838;2023-06-14T10:59:18;5.85;;;2.45;;
39370;SDS011;25099;51.946;4.838;2023-06-14T11:04:47;3.97;;;1.85;;
39370;SDS011;25099;51.946;4.838;2023-06-14T11:12:58;4.38;;;1.60;;
39370;SDS011;25099;51.946;4.838;2023-06-14T11:15:31;4.88;;;1.70;;
39370;SDS011;25099;51.946;4.838;2023-06-14T11:18:01;4.35;;;1.70;;
39370;SDS011;25099;51.946;4.838;2023-06-14T11:20:29;2.72;;;1.58;;
39370;SDS011;25099;51.946;4.838;2023-06-14T11:22:55;1.48;;;1.38;;
39370;SDS011;25099;51.946;4.838;2023-06-14T11:25:21;7.97;;;1.30;;
39370;SDS011;25099;51.946;4.838;2023-06-14T11:27:48;2.83;;;1.55;;
39370;SDS011;25099;51.946;4.838;2023-06-14T11:30:15;1.88;;;1.58;;
39370;SDS011;25099;51.946;4.838;2023-06-14T11:32:41;4.55;;;1.98;;
39370;SDS011;25099;51.946;4.838;2023-06-14T11:35:07;2.63;;;1.63;;
39370;SDS011;25099;51.946;4.838;2023-06-14T11:37:35;2.17;;;1.42;;
39370;SDS011;25099;51.946;4.838;2023-06-14T11:42:35;3.67;;;1.20;;
39370;SDS011;25099;51.946;4.838;2023-06-14T11:45:01;1.70;;;1.60;;
39370;SDS011;25099;51.946;4.838;2023-06-14T11:47:34;4.00;;;1.60;;
39370;SDS011;25099;51.946;4.838;2023-06-14T11:50:00;1.75;;;1.40;;
39370;SDS011;25099;51.946;4.838;2023-06-14T11:52:27;8.45;;;1.75;;
39370;SDS011;25099;51.946;4.838;2023-06-14T11:54:53;15.70;;;2.13;;
39370;SDS011;25099;51.946;4.838;2023-06-14T11:57:19;4.93;;;1.60;;
39370;SDS011;25099;51.946;4.838;2023-06-14T11:59:45;6.20;;;1.50;;
39370;SDS011;25099;51.946;4.838;2023-06-14T12:02:17;2.60;;;1.60;;
39370;SDS011;25099;51.946;4.838;2023-06-14T12:04:44;1.40;;;1.30;;
39370;SDS011;25099;51.946;4.838;2023-06-14T12:07:12;5.57;;;1.40;;
39370;SDS011;25099;51.946;4.838;2023-06-14T12:12:22;6.38;;;1.73;;
39370;SDS011;25099;51.946;4.838;2023-06-14T12:14:52;3.88;;;1.80;;
39370;SDS011;25099;51.946;4.838;2023-06-14T12:17:18;2.92;;;1.73;;
39370;SDS011;25099;51.946;4.838;2023-06-14T12:19:45;3.88;;;1.50;;
39370;SDS011;25099;51.946;4.838;2023-06-14T12:22:12;7.10;;;1.95;;
39370;SDS011;25099;51.946;4.838;2023-06-14T12:24:38;4.88;;;1.95;;
39370;SDS011;25099;51.946;4.838;2023-06-14T12:27:04;4.43;;;1.50;;
39370;SDS011;25099;51.946;4.838;2023-06-14T12:29:30;4.28;;;1.67;;
39370;SDS011;25099;51.946;4.838;2023-06-14T12:31:56;8.88;;;1.73;;
39370;SDS011;25099;51.946;4.838;2023-06-14T12:34:26;4.05;;;1.83;;
39370;SDS011;25099;51.946;4.838;2023-06-14T12:36:55;1.48;;;1.38;;
39370;SDS011;25099;51.946;4.838;2023-06-14T12:39:31;2.33;;;1.35;;
39370;SDS011;25099;51.946;4.838;2023-06-14T12:41:57;3.75;;;1.60;;
39370;SDS011;25099;51.946;4.838;2023-06-14T12:44:22;5.30;;;1.90;;
39370;SDS011;25099;51.946;4.838;2023-06-14T12:46:48;9.07;;;2.20;;
39370;SDS011;25099;51.946;4.838;2023-06-14T12:49:16;1.83;;;1.40;;
39370;SDS011;25099;51.946;4.838;2023-06-14T12:51:42;2.13;;;1.60;;
39370;SDS011;25099;51.946;4.838;2023-06-14T12:54:07;1.70;;;1.60;;
39370;SDS011;25099;51.946;4.838;2023-06-14T12:56:33;2.75;;;1.88;;
39370;SDS011;25099;51.946;4.838;2023-06-14T12:58:59;3.65;;;1.60;;
39370;SDS011;25099;51.946;4.838;2023-06-14T13:01:24;2.13;;;1.33;;
39370;SDS011;25099;51.946;4.838;2023-06-14T13:03:50;5.95;;;1.60;;
39370;SDS011;25099;51.946;4.838;2023-06-14T13:06:20;6.60;;;1.90;;
39370;SDS011;25099;51.946;4.838;2023-06-14T13:08:46;3.83;;;1.40;;
39370;SDS011;25099;51.946;4.838;2023-06-14T13:11:12;5.15;;;1.30;;
39370;SDS011;25099;51.946;4.838;2023-06-14T13:13:37;2.63;;;1.65;;
39370;SDS011;25099;51.946;4.838;2023-06-14T13:16:09;3.72;;;1.48;;
39370;SDS011;25099;51.946;4.838;2023-06-14T13:18:39;4.55;;;1.60;;
39370;SDS011;25099;51.946;4.838;2023-06-14T13:21:05;7.13;;;1.50;;
39370;SDS011;25099;51.946;4.838;2023-06-14T13:23:30;3.10;;;1.50;;
39370;SDS011;25099;51.946;4.838;2023-06-14T13:25:56;2.30;;;1.63;;
39370;SDS011;25099;51.946;4.838;2023-06-14T13:28:21;1.85;;;1.60;;
39370;SDS011;25099;51.946;4.838;2023-06-14T13:30:47;2.10;;;1.95;;
39370;SDS011;25099;51.946;4.838;2023-06-14T13:33:13;6.55;;;2.00;;
39370;SDS011;25099;51.946;4.838;2023-06-14T13:35:39;1.83;;;1.52;;
39370;SDS011;25099;51.946;4.838;2023-06-14T13:38:04;6.88;;;1.83;;
39370;SDS011;25099;51.946;4.838;2023-06-14T13:40:30;1.85;;;1.58;;
39370;SDS011;25099;51.946;4.838;2023-06-14T13:42:55;4.72;;;1.60;;
39370;SDS011;25099;51.946;4.838;2023-06-14T13:45:21;3.75;;;1.95;;
39370;SDS011;25099;51.946;4.838;2023-06-14T13:47:47;1.77;;;1.50;;
39370;SDS011;25099;51.946;4.838;2023-06-14T13:50:13;3.65;;;1.77;;
39370;SDS011;25099;51.946;4.838;2023-06-14T13:52:39;1.52;;;1.42;;
39370;SDS011;25099;51.946;4.838;2023-06-14T13:55:05;5.35;;;1.80;;
39370;SDS011;25099;51.946;4.838;2023-06-14T13:57:31;2.20;;;1.50;;
39370;SDS011;25099;51.946;4.838;2023-06-14T13:59:56;5.28;;;1.55;;
39370;SDS011;25099;51.946;4.838;2023-06-14T14:02:26;6.95;;;1.60;;
39370;SDS011;25099;51.946;4.838;2023-06-14T14:04:53;1.25;;;1.13;;
39370;SDS011;25099;51.946;4.838;2023-06-14T14:07:19;1.27;;;1.10;;
39370;SDS011;25099;51.946;4.838;2023-06-14T14:09:45;5.15;;;1.63;;
39370;SDS011;25099;51.946;4.838;2023-06-14T14:12:12;4.60;;;1.35;;
39370;SDS011;25099;51.946;4.838;2023-06-14T14:14:39;5.65;;;1.58;;
39370;SDS011;25099;51.946;4.838;2023-06-14T14:17:05;3.25;;;1.65;;
39370;SDS011;25099;51.946;4.838;2023-06-14T14:19:31;3.92;;;1.55;;
39370;SDS011;25099;51.946;4.838;2023-06-14T14:21:57;2.50;;;1.88;;
39370;SDS011;25099;51.946;4.838;2023-06-14T14:24:23;2.88;;;1.00;;
39370;SDS011;25099;51.946;4.838;2023-06-14T14:26:48;1.40;;;1.20;;
39370;SDS011;25099;51.946;4.838;2023-06-14T14:29:15;2.55;;;1.50;;
39370;SDS011;25099;51.946;4.838;2023-06-14T14:31:41;10.30;;;1.52;;
39370;SDS011;25099;51.946;4.838;2023-06-14T14:34:07;3.97;;;1.45;;
39370;SDS011;25099;51.946;4.838;2023-06-14T14:36:33;2.97;;;1.23;;
39370;SDS011;25099;51.946;4.838;2023-06-14T14:39:01;2.20;;;1.50;;
39370;SDS011;25099;51.946;4.838;2023-06-14T14:41:27;4.38;;;1.33;;
39370;SDS011;25099;51.946;4.838;2023-06-14T14:43:52;2.67;;;1.35;;
39370;SDS011;25099;51.946;4.838;2023-06-14T14:46:18;4.38;;;2.15;;
39370;SDS011;25099;51.946;4.838;2023-06-14T14:48:44;2.20;;;1.88;;
39370;SDS011;25099;51.946;4.838;2023-06-14T14:51:09;3.22;;;1.30;;
39370;SDS011;25099;51.946;4.838;2023-06-14T14:53:35;2.17;;;1.67;;
39370;SDS011;25099;51.946;4.838;2023-06-14T14:56:00;3.70;;;1.50;;
39370;SDS011;25099;51.946;4.838;2023-06-14T14:58:26;2.10;;;1.50;;
39370;SDS011;25099;51.946;4.838;2023-06-14T15:00:52;3.00;;;1.75;;
39370;SDS011;25099;51.946;4.838;2023-06-14T15:03:17;6.45;;;2.08;;
39370;SDS011;25099;51.946;4.838;2023-06-14T15:05:44;1.67;;;1.50;;
39370;SDS011;25099;51.946;4.838;2023-06-14T15:08:10;3.10;;;1.70;;
39370;SDS011;25099;51.946;4.838;2023-06-14T15:10:37;3.97;;;1.67;;
39370;SDS011;25099;51.946;4.838;2023-06-14T15:13:09;1.90;;;1.63;;
39370;SDS011;25099;51.946;4.838;2023-06-14T15:15:36;3.90;;;1.30;;
39370;SDS011;25099;51.946;4.838;2023-06-14T15:18:02;2.88;;;1.45;;
39370;SDS011;25099;51.946;4.838;2023-06-14T15:20:28;3.03;;;1.63;;
39370;SDS011;25099;51.946;4.838;2023-06-14T15:22:54;6.22;;;2.00;;